Time;durP1;ratioP1;P1;durP2;ratioP2;P2;SDS_P1;SDS_P2;PMS_P1;PMS_P2;Temp;Humidity;BMP_temperature;BMP_pressure;BME280_temperature;BME280_humidity;BME280_pressure;Samples;Min_cycle;Max_cycle;Signal;HPM_P1;HPM_P2
2023/03/03 00:00:56;;;;;;;11.93;10.43;;;15.90;42.60;;;;;;4941054;29;20218;-82
2023/03/03 00:03:24;;;;;;;12.98;10.55;;;15.90;42.50;;;;;;4941302;29;20207;-82
2023/03/03 00:05:51;;;;;;;12.23;11.02;;;15.90;42.50;;;;;;4940784;28;20202;-82
2023/03/03 00:08:18;;;;;;;11.38;10.13;;;15.90;42.50;;;;;;4939850;29;20269;-82
2023/03/03 00:10:46;;;;;;;11.55;10.40;;;15.80;42.70;;;;;;4939802;29;20207;-82
2023/03/03 00:13:15;;;;;;;11.02;9.90;;;15.80;42.80;;;;;;4940290;29;20191;-82
2023/03/03 00:15:44;;;;;;;11.75;10.55;;;15.80;42.60;;;;;;4939824;29;20244;-83
2023/03/03 00:18:19;;;;;;;11.98;10.65;;;15.80;42.60;;;;;;4940211;29;20202;-83
2023/03/03 00:20:48;;;;;;;12.00;10.75;;;15.80;42.80;;;;;;4940296;29;20195;-83
2023/03/03 00:23:23;;;;;;;11.65;10.45;;;15.80;42.80;;;;;;4941649;29;20199;-82
2023/03/03 00:25:52;;;;;;;11.35;10.23;;;15.70;42.80;;;;;;4924684;28;20198;-82
2023/03/03 00:28:24;;;;;;;14.00;11.13;;;15.70;42.70;;;;;;4940297;29;20227;-82
2023/03/03 00:30:52;;;;;;;12.10;10.80;;;15.70;42.70;;;;;;4940867;29;20217;-82
2023/03/03 00:33:28;;;;;;;11.35;10.10;;;15.70;42.80;;;;;;4940019;29;20214;-82
2023/03/03 00:35:57;;;;;;;12.25;10.95;;;15.60;42.80;;;;;;4940200;28;20194;-82
2023/03/03 00:38:24;;;;;;;12.18;10.48;;;15.60;42.80;;;;;;4940328;29;20195;-82
2023/03/03 00:40:51;;;;;;;12.25;10.45;;;15.60;42.80;;;;;;4940156;29;20199;-82
2023/03/03 00:43:20;;;;;;;12.00;10.68;;;15.60;42.80;;;;;;4940022;29;20650;-82
2023/03/03 00:45:47;;;;;;;11.90;10.43;;;15.60;42.90;;;;;;4939783;28;20273;-82
2023/03/03 00:48:40;;;;;;;11.65;10.27;;;15.50;42.80;;;;;;4939744;29;20257;-82
2023/03/03 00:51:12;;;;;;;11.63;10.43;;;15.50;42.90;;;;;;4942515;29;20206;-82
2023/03/03 00:53:39;;;;;;;12.82;11.10;;;15.50;42.80;;;;;;4941256;29;20213;-82
2023/03/03 00:56:06;;;;;;;11.98;10.75;;;15.50;42.80;;;;;;4940167;28;20222;-82
2023/03/03 00:58:34;;;;;;;12.00;10.15;;;15.50;42.90;;;;;;4939749;29;20190;-82
2023/03/03 01:01:00;;;;;;;12.07;10.88;;;15.50;42.90;;;;;;4939412;29;20302;-82
2023/03/03 01:03:39;;;;;;;11.70;10.50;;;15.40;42.90;;;;;;4939443;29;20194;-82
2023/03/03 01:06:06;;;;;;;12.30;11.02;;;15.40;42.90;;;;;;4939065;28;20222;-82
2023/03/03 01:08:34;;;;;;;12.70;11.40;;;15.40;42.90;;;;;;4939060;29;20223;-82
2023/03/03 01:11:04;;;;;;;11.18;10.00;;;15.40;42.90;;;;;;4939380;29;20202;-82
2023/03/03 01:13:32;;;;;;;11.43;10.23;;;15.30;42.90;;;;;;4939711;29;20195;-82
2023/03/03 01:15:59;;;;;;;12.35;10.95;;;15.30;43.00;;;;;;4940414;28;20294;-82
2023/03/03 01:18:26;;;;;;;11.93;10.63;;;15.30;42.90;;;;;;4954743;29;20653;-82
2023/03/03 01:20:55;;;;;;;12.70;11.15;;;15.30;42.90;;;;;;4942085;29;20217;-83
2023/03/03 01:23:22;;;;;;;12.85;11.40;;;15.30;43.00;;;;;;4925070;29;20207;-83
2023/03/03 01:25:49;;;;;;;13.77;11.55;;;15.30;43.00;;;;;;4940328;28;20681;-82
2023/03/03 01:28:16;;;;;;;11.35;10.18;;;15.20;43.10;;;;;;4940351;29;20219;-82
2023/03/03 01:30:44;;;;;;;11.10;9.95;;;15.20;43.00;;;;;;4940230;29;20206;-82
2023/03/03 01:33:12;;;;;;;14.00;12.18;;;15.20;43.10;;;;;;4939770;29;20745;-82
2023/03/03 01:35:44;;;;;;;11.63;10.43;;;15.20;43.70;;;;;;4940245;29;20206;-82
2023/03/03 01:38:12;;;;;;;11.80;10.60;;;15.20;43.10;;;;;;4939910;29;20195;-82
2023/03/03 01:40:40;;;;;;;11.48;10.32;;;15.20;43.00;;;;;;4941100;29;20246;-82
2023/03/03 01:43:07;;;;;;;11.90;10.70;;;15.10;43.70;;;;;;4940773;29;20195;-83
2023/03/03 01:45:43;;;;;;;11.38;10.18;;;15.20;43.10;;;;;;4940569;29;20209;-83
2023/03/03 01:48:11;;;;;;;12.18;10.82;;;15.10;43.10;;;;;;4940472;29;20242;-83
2023/03/03 01:50:41;;;;;;;12.20;10.93;;;15.10;43.20;;;;;;4938811;29;20195;-83
2023/03/03 01:53:13;;;;;;;12.05;10.85;;;15.10;43.10;;;;;;4939721;29;20201;-83
2023/03/03 01:55:42;;;;;;;11.65;10.45;;;15.00;43.10;;;;;;4939955;29;20541;-83
2023/03/03 01:58:11;;;;;;;13.10;11.60;;;15.00;43.10;;;;;;4939105;29;20313;-83
2023/03/03 02:00:39;;;;;;;12.30;11.00;;;15.00;43.20;;;;;;4941613;29;20561;-83
2023/03/03 02:03:06;;;;;;;13.25;11.45;;;15.00;43.10;;;;;;4942836;29;20209;-83
2023/03/03 02:05:33;;;;;;;13.07;11.45;;;15.00;43.20;;;;;;4926682;29;20573;-82
2023/03/03 02:08:01;;;;;;;13.15;11.55;;;15.00;43.10;;;;;;4942592;29;20720;-82
2023/03/03 02:10:29;;;;;;;13.13;11.73;;;14.90;43.20;;;;;;4942907;29;20685;-82
2023/03/03 02:12:57;;;;;;;11.93;10.35;;;14.90;43.10;;;;;;4942444;29;20199;-83
2023/03/03 02:15:25;;;;;;;12.10;10.80;;;14.90;43.10;;;;;;4942534;28;20266;-83
2023/03/03 02:17:53;;;;;;;13.23;11.35;;;14.90;43.20;;;;;;4926999;29;20218;-83
2023/03/03 02:20:33;;;;;;;13.48;12.07;;;14.90;43.50;;;;;;4926925;29;20250;-83
2023/03/03 02:23:05;;;;;;;13.68;11.07;;;14.90;43.20;;;;;;4943324;29;20626;-83
2023/03/03 02:25:37;;;;;;;12.63;11.35;;;14.80;43.10;;;;;;4942409;29;20206;-83
2023/03/03 02:28:07;;;;;;;14.27;11.50;;;14.80;43.10;;;;;;4942782;29;20249;-83
2023/03/03 02:30:37;;;;;;;13.02;11.43;;;14.80;43.10;;;;;;4942125;29;20210;-83
2023/03/03 02:33:05;;;;;;;13.13;11.52;;;14.80;43.10;;;;;;4941761;29;20195;-83
2023/03/03 02:35:33;;;;;;;13.40;12.00;;;14.80;43.10;;;;;;4941949;29;20203;-82
2023/03/03 02:38:06;;;;;;;12.95;11.65;;;14.80;43.30;;;;;;4942210;29;20242;-82
2023/03/03 02:40:37;;;;;;;13.43;12.02;;;14.80;43.10;;;;;;4941651;29;20198;-82
2023/03/03 02:43:07;;;;;;;14.27;12.32;;;14.80;43.20;;;;;;4942380;29;20198;-82
2023/03/03 02:45:34;;;;;;;13.23;11.43;;;14.80;43.30;;;;;;4941237;29;20230;-82
2023/03/03 02:48:01;;;;;;;13.30;11.82;;;14.70;43.30;;;;;;4958702;28;20285;-82
2023/03/03 02:50:29;;;;;;;12.63;11.27;;;14.70;43.40;;;;;;4941622;29;20221;-82
2023/03/03 02:52:56;;;;;;;12.43;11.13;;;14.70;43.40;;;;;;4925620;29;20195;-82
2023/03/03 02:55:24;;;;;;;14.60;12.00;;;14.70;43.40;;;;;;4941551;29;20199;-82
2023/03/03 02:57:50;;;;;;;13.77;11.30;;;14.70;43.30;;;;;;4941153;29;20222;-82
2023/03/03 03:00:21;;;;;;;13.00;11.65;;;14.70;43.40;;;;;;4941081;29;20201;-82
2023/03/03 03:02:48;;;;;;;12.45;11.15;;;14.70;43.40;;;;;;4941490;29;20295;-83
2023/03/03 03:05:16;;;;;;;12.40;11.15;;;14.70;43.50;;;;;;4940964;29;20223;-83
2023/03/03 03:07:43;;;;;;;14.38;12.65;;;14.70;43.50;;;;;;4941626;29;20222;-82
2023/03/03 03:10:11;;;;;;;13.25;11.63;;;14.70;43.40;;;;;;4940885;29;20226;-82
2023/03/03 03:12:40;;;;;;;12.68;11.35;;;14.60;43.40;;;;;;4957095;28;20194;-82
2023/03/03 03:15:10;;;;;;;12.80;11.50;;;14.70;43.60;;;;;;4940916;28;20667;-82
2023/03/03 03:17:39;;;;;;;13.65;12.25;;;14.70;43.50;;;;;;4940987;29;20222;-82
2023/03/03 03:20:07;;;;;;;13.43;11.13;;;14.60;43.40;;;;;;4941532;29;20249;-82
2023/03/03 03:22:35;;;;;;;11.70;10.48;;;14.60;43.50;;;;;;4942651;29;20203;-82
2023/03/03 03:25:03;;;;;;;12.75;11.43;;;14.70;43.50;;;;;;4926092;29;20207;-82
2023/03/03 03:27:30;;;;;;;13.07;11.27;;;14.70;43.60;;;;;;4941566;29;20226;-82
2023/03/03 03:29:58;;;;;;;13.20;11.57;;;14.60;43.50;;;;;;4926554;29;20215;-82
2023/03/03 03:32:26;;;;;;;13.48;12.07;;;14.70;43.60;;;;;;4925620;29;20194;-82
2023/03/03 03:34:55;;;;;;;11.98;10.77;;;14.70;43.50;;;;;;4925256;29;20689;-83
2023/03/03 03:37:22;;;;;;;13.15;11.25;;;14.60;43.40;;;;;;4941618;29;20229;-82
2023/03/03 03:39:49;;;;;;;12.43;11.13;;;14.60;43.50;;;;;;4941617;29;20286;-82
2023/03/03 03:42:18;;;;;;;12.93;11.60;;;14.70;43.50;;;;;;4926084;29;20615;-83
2023/03/03 03:44:45;;;;;;;13.75;11.55;;;14.70;43.50;;;;;;4940999;29;20631;-82
2023/03/03 03:47:14;;;;;;;14.27;11.40;;;14.60;43.50;;;;;;4946098;29;20226;-82
2023/03/03 03:49:42;;;;;;;11.90;10.75;;;14.60;43.50;;;;;;4950795;29;20255;-82
2023/03/03 03:52:10;;;;;;;13.07;11.77;;;14.70;43.70;;;;;;4949297;29;20230;-82
2023/03/03 03:54:37;;;;;;;12.68;11.35;;;14.70;43.40;;;;;;4956339;29;20209;-82
2023/03/03 03:57:05;;;;;;;13.70;12.18;;;14.70;43.50;;;;;;4962322;29;20246;-82
2023/03/03 03:59:31;;;;;;;13.63;12.18;;;14.70;43.50;;;;;;4961372;29;20266;-82
2023/03/03 04:01:59;;;;;;;12.63;11.20;;;14.60;43.40;;;;;;4949125;29;20286;-82
2023/03/03 04:04:26;;;;;;;13.57;11.75;;;14.70;43.50;;;;;;4945553;29;20744;-82
2023/03/03 04:06:54;;;;;;;13.13;11.73;;;14.70;43.50;;;;;;4944640;29;20230;-82
2023/03/03 04:09:22;;;;;;;12.30;11.00;;;14.70;43.50;;;;;;4944499;29;20274;-82
2023/03/03 04:11:50;;;;;;;13.13;11.73;;;14.60;43.30;;;;;;4944034;29;20206;-82
2023/03/03 04:14:18;;;;;;;13.35;11.73;;;14.70;43.50;;;;;;4944085;29;20199;-82
2023/03/03 04:16:45;;;;;;;13.32;11.80;;;14.70;43.60;;;;;;4943473;29;20269;-82
2023/03/03 04:19:12;;;;;;;15.10;12.77;;;14.70;43.90;;;;;;4940466;29;20226;-82
2023/03/03 04:21:42;;;;;;;14.00;12.13;;;14.60;43.70;;;;;;4925184;29;20202;-83
2023/03/03 04:24:09;;;;;;;13.10;11.70;;;14.70;43.70;;;;;;4926449;29;20281;-83
2023/03/03 04:26:40;;;;;;;12.77;11.18;;;14.70;43.70;;;;;;4941495;29;20223;-83
2023/03/03 04:29:08;;;;;;;13.40;12.00;;;14.70;43.50;;;;;;4940294;29;20757;-83
2023/03/03 04:31:35;;;;;;;14.32;12.32;;;14.70;43.60;;;;;;4940431;29;20226;-83
2023/03/03 04:34:04;;;;;;;15.00;12.93;;;14.70;43.50;;;;;;4944591;29;20195;-82
2023/03/03 04:36:31;;;;;;;13.95;12.10;;;14.80;43.60;;;;;;4946765;29;20222;-82
2023/03/03 04:38:59;;;;;;;13.63;12.23;;;14.80;44.10;;;;;;4947968;29;20206;-82
2023/03/03 04:41:26;;;;;;;14.40;12.85;;;14.80;43.40;;;;;;4948838;29;20238;-82
2023/03/03 04:43:56;;;;;;;14.85;12.55;;;14.80;43.40;;;;;;4947887;29;20649;-82
2023/03/03 04:46:23;;;;;;;16.42;13.57;;;14.80;43.40;;;;;;4947393;29;20242;-82
2023/03/03 04:48:51;;;;;;;13.95;12.32;;;14.80;43.30;;;;;;4947903;29;20226;-82
2023/03/03 04:51:18;;;;;;;13.23;11.73;;;14.90;43.30;;;;;;4948939;29;20205;-82
2023/03/03 04:53:46;;;;;;;13.05;11.70;;;14.90;43.30;;;;;;4949819;29;20249;-83
2023/03/03 04:56:13;;;;;;;15.15;13.55;;;14.90;43.30;;;;;;4952788;29;20218;-83
2023/03/03 04:58:41;;;;;;;14.73;11.88;;;14.90;43.10;;;;;;4943915;29;20202;-83
2023/03/03 05:01:10;;;;;;;12.65;11.30;;;15.00;43.20;;;;;;4942455;29;20218;-83
2023/03/03 05:03:39;;;;;;;14.63;12.38;;;14.90;43.20;;;;;;4942267;29;20195;-83
2023/03/03 05:06:07;;;;;;;13.60;11.40;;;15.00;43.30;;;;;;4927091;28;20219;-84
2023/03/03 05:08:34;;;;;;;12.25;11.05;;;15.00;43.30;;;;;;4943392;29;20249;-83
2023/03/03 05:11:01;;;;;;;13.07;11.68;;;15.00;43.30;;;;;;4941683;29;20222;-83
2023/03/03 05:13:28;;;;;;;12.82;10.95;;;15.00;43.30;;;;;;4941715;29;20246;-83
2023/03/03 05:15:56;;;;;;;13.02;11.02;;;15.00;43.20;;;;;;4941074;28;20215;-84
2023/03/03 05:18:24;;;;;;;13.00;11.70;;;15.00;43.10;;;;;;4940887;29;20218;-84
2023/03/03 05:20:52;;;;;;;11.88;10.60;;;15.00;43.20;;;;;;4944926;29;20206;-84
2023/03/03 05:23:19;;;;;;;12.23;10.88;;;15.10;43.20;;;;;;4944464;29;20238;-83
2023/03/03 05:25:47;;;;;;;11.98;10.77;;;15.10;43.10;;;;;;4943455;28;20203;-80
2023/03/03 05:28:14;;;;;;;12.98;11.68;;;15.10;42.90;;;;;;4950412;29;20203;-81
2023/03/03 05:30:41;;;;;;;12.98;11.57;;;15.10;42.90;;;;;;4952700;29;20223;-81
2023/03/03 05:33:08;;;;;;;13.25;11.43;;;15.10;42.80;;;;;;4942677;29;20265;-80
2023/03/03 05:35:37;;;;;;;12.70;11.32;;;15.20;42.90;;;;;;4948724;29;20210;-82
2023/03/03 05:38:04;;;;;;;11.23;10.02;;;15.20;42.90;;;;;;4945726;29;20230;-82
2023/03/03 05:40:31;;;;;;;15.02;13.10;;;15.20;43.10;;;;;;4945639;29;20202;-82
2023/03/03 05:42:58;;;;;;;14.05;11.98;;;15.20;42.90;;;;;;4944155;29;20616;-81
2023/03/03 05:45:26;;;;;;;13.82;12.23;;;15.30;43.30;;;;;;4927893;29;20249;-81
2023/03/03 05:47:53;;;;;;;13.70;11.98;;;15.30;43.10;;;;;;4942785;29;20309;-82
2023/03/03 05:50:21;;;;;;;13.38;11.65;;;15.30;43.30;;;;;;4942767;29;20662;-82
2023/03/03 05:52:50;;;;;;;12.45;11.15;;;15.30;43.30;;;;;;4943050;29;20202;-83
2023/03/03 05:55:18;;;;;;;13.98;11.98;;;15.30;43.60;;;;;;4944099;29;20676;-82
2023/03/03 05:57:45;;;;;;;12.68;11.38;;;15.40;43.60;;;;;;4943239;29;20219;-82
2023/03/03 06:00:13;;;;;;;13.82;12.18;;;15.40;43.60;;;;;;4942596;29;20203;-82
2023/03/03 06:02:40;;;;;;;14.70;12.77;;;15.40;43.70;;;;;;4960139;29;20281;-82
2023/03/03 06:05:08;;;;;;;13.60;12.13;;;15.40;43.50;;;;;;4942930;29;20538;-82
2023/03/03 06:07:35;;;;;;;14.88;12.20;;;15.40;43.60;;;;;;4942184;29;20242;-82
2023/03/03 06:10:04;;;;;;;15.65;12.80;;;15.50;44.20;;;;;;4942277;29;20230;-82
2023/03/03 06:12:34;;;;;;;17.00;12.05;;;15.50;43.70;;;;;;4942724;29;20187;-82
2023/03/03 06:15:01;;;;;;;14.82;12.38;;;15.50;43.50;;;;;;4942569;29;20670;-81
2023/03/03 06:17:28;;;;;;;12.77;10.85;;;15.50;43.30;;;;;;4947914;29;20240;-81
2023/03/03 06:19:55;;;;;;;13.52;12.02;;;15.50;43.30;;;;;;4943512;29;20205;-81
2023/03/03 06:22:22;;;;;;;13.80;12.05;;;15.50;43.30;;;;;;4941965;29;20211;-81
2023/03/03 06:24:49;;;;;;;12.23;10.18;;;15.50;43.10;;;;;;4942225;29;20198;-81
2023/03/03 06:27:17;;;;;;;15.07;12.07;;;15.50;43.10;;;;;;4941903;29;20243;-81
2023/03/03 06:29:45;;;;;;;13.45;12.02;;;15.60;43.10;;;;;;4942271;29;20250;-82
2023/03/03 06:32:12;;;;;;;12.90;11.27;;;15.50;43.20;;;;;;4942240;29;20250;-82
2023/03/03 06:34:40;;;;;;;13.57;11.52;;;15.50;43.00;;;;;;4942473;29;20544;-82
2023/03/03 06:37:07;;;;;;;13.25;11.70;;;15.60;43.20;;;;;;4943704;29;20229;-80
2023/03/03 06:39:34;;;;;;;16.50;12.82;;;15.60;43.10;;;;;;4945129;29;20278;-85
2023/03/03 06:42:01;;;;;;;16.48;13.73;;;15.50;42.90;;;;;;4942830;29;20692;-83
2023/03/03 06:44:29;;;;;;;15.40;12.23;;;15.60;42.70;;;;;;4959973;23;20541;-80
2023/03/03 06:46:57;;;;;;;16.35;12.93;;;15.60;42.70;;;;;;4960567;28;20767;-80
2023/03/03 06:49:25;;;;;;;16.85;13.82;;;15.60;42.60;;;;;;4960701;28;20229;-80
2023/03/03 06:51:52;;;;;;;13.68;11.50;;;15.60;42.80;;;;;;4960496;28;20206;-80
2023/03/03 06:54:20;;;;;;;16.48;14.00;;;15.60;43.10;;;;;;4960366;28;20206;-79
2023/03/03 06:56:47;;;;;;;15.70;13.05;;;15.70;42.40;;;;;;4960691;28;20225;-79
2023/03/03 06:59:17;;;;;;;17.00;12.95;;;15.70;42.40;;;;;;4960231;28;20578;-79
2023/03/03 07:01:46;;;;;;;15.35;12.45;;;15.70;42.40;;;;;;4960065;28;20198;-79
2023/03/03 07:04:27;;;;;;;14.55;12.40;;;15.70;42.40;;;;;;4960000;28;20562;-79
2023/03/03 07:06:55;;;;;;;16.05;13.20;;;15.80;42.40;;;;;;4960070;28;20716;-79
2023/03/03 07:09:24;;;;;;;15.30;12.60;;;15.80;42.30;;;;;;4959871;28;20580;-79
2023/03/03 07:11:51;;;;;;;13.23;11.50;;;15.80;42.20;;;;;;4959774;28;20217;-79
2023/03/03 07:14:19;;;;;;;13.68;12.27;;;15.80;42.60;;;;;;4959804;28;20285;-79
2023/03/03 07:16:48;;;;;;;16.17;12.95;;;15.80;42.10;;;;;;4960523;28;20218;-79
2023/03/03 07:19:19;;;;;;;15.40;11.63;;;15.90;42.00;;;;;;4960159;28;20641;-79
2023/03/03 07:21:46;;;;;;;14.60;12.63;;;15.90;42.00;;;;;;4959843;28;20285;-79
2023/03/03 07:24:22;;;;;;;16.90;12.00;;;15.90;41.80;;;;;;4977096;28;20194;-79
2023/03/03 07:26:49;;;;;;;15.40;13.00;;;15.90;41.70;;;;;;4960156;28;20225;-79
2023/03/03 07:29:21;;;;;;;13.50;11.07;;;15.90;41.50;;;;;;4979373;28;20186;-79
2023/03/03 07:31:50;;;;;;;13.07;11.60;;;16.00;41.80;;;;;;4963058;28;20210;-79
2023/03/03 07:34:20;;;;;;;15.20;12.10;;;16.00;41.50;;;;;;4962029;28;20217;-79
2023/03/03 07:36:48;;;;;;;14.15;12.02;;;16.00;41.60;;;;;;4960514;28;20226;-79
2023/03/03 07:39:31;;;;;;;14.70;12.38;;;16.00;41.30;;;;;;4959348;28;20198;-79
2023/03/03 07:42:01;;;;;;;15.55;12.00;;;16.00;41.30;;;;;;4957102;28;20595;-79
2023/03/03 07:44:30;;;;;;;16.55;12.57;;;16.10;41.40;;;;;;4959671;28;20645;-79
2023/03/03 07:46:59;;;;;;;15.25;12.43;;;16.10;41.20;;;;;;4959932;28;20222;-79
2023/03/03 07:49:31;;;;;;;15.23;12.35;;;16.10;41.20;;;;;;4976933;28;20194;-79
2023/03/03 07:51:58;;;;;;;15.05;12.88;;;16.20;41.10;;;;;;4959195;28;20257;-79
2023/03/03 07:54:31;;;;;;;17.17;12.95;;;16.30;40.80;;;;;;4959106;28;20269;-79
2023/03/03 07:56:59;;;;;;;16.38;11.88;;;16.40;40.80;;;;;;4942987;28;20225;-79
2023/03/03 07:59:26;;;;;;;17.95;13.20;;;16.50;40.80;;;;;;4958476;28;20661;-79
2023/03/03 08:01:54;;;;;;;18.38;12.60;;;16.70;40.60;;;;;;4959039;28;20202;-79
2023/03/03 08:04:24;;;;;;;17.60;12.02;;;16.80;40.20;;;;;;4958885;28;20202;-79
2023/03/03 08:06:53;;;;;;;16.23;12.80;;;17.00;39.80;;;;;;4976539;28;20241;-79
2023/03/03 08:09:27;;;;;;;15.98;12.48;;;17.20;39.60;;;;;;4958795;28;20198;-79
2023/03/03 08:11:57;;;;;;;16.98;12.50;;;17.20;39.30;;;;;;4958801;28;20610;-79
2023/03/03 08:14:26;;;;;;;15.38;12.95;;;17.30;39.10;;;;;;4958868;28;20633;-79
2023/03/03 08:16:53;;;;;;;14.50;11.40;;;17.50;38.90;;;;;;4958716;28;20229;-79
2023/03/03 08:19:20;;;;;;;14.50;12.05;;;17.60;38.80;;;;;;4942887;28;20606;-79
2023/03/03 08:21:48;;;;;;;14.25;12.18;;;17.70;38.20;;;;;;4959022;28;20205;-79
2023/03/03 08:24:16;;;;;;;15.82;12.70;;;18.00;39.10;;;;;;4958353;28;20301;-79
2023/03/03 08:26:43;;;;;;;13.43;11.13;;;18.20;38.30;;;;;;4958408;28;20249;-79
2023/03/03 08:29:11;;;;;;;16.25;13.00;;;18.40;37.90;;;;;;4958565;28;20194;-78
2023/03/03 08:31:38;;;;;;;14.57;12.25;;;18.60;37.80;;;;;;4958325;28;20221;-78
2023/03/03 08:34:05;;;;;;;14.05;11.68;;;18.70;39.70;;;;;;4942601;28;20208;-79
2023/03/03 08:36:33;;;;;;;14.77;11.85;;;18.90;39.30;;;;;;4942372;28;20641;-79
2023/03/03 08:39:01;;;;;;;13.95;10.98;;;19.10;39.00;;;;;;4958464;28;20202;-79
2023/03/03 08:41:28;;;;;;;15.52;11.82;;;19.20;38.30;;;;;;4957847;28;20194;-79
2023/03/03 08:43:55;;;;;;;12.55;10.68;;;19.30;38.10;;;;;;4958355;28;20209;-79
2023/03/03 08:46:22;;;;;;;15.15;11.50;;;19.50;37.90;;;;;;4958143;28;20276;-79
2023/03/03 08:48:50;;;;;;;13.10;10.90;;;19.60;37.80;;;;;;4958165;28;20574;-79
2023/03/03 08:51:17;;;;;;;13.35;11.23;;;19.60;37.60;;;;;;4958331;28;20675;-79
2023/03/03 08:53:45;;;;;;;12.30;10.98;;;19.80;37.70;;;;;;4975112;28;20197;-79
2023/03/03 08:56:13;;;;;;;13.60;11.45;;;19.80;37.20;;;;;;4957702;28;20221;-79
2023/03/03 08:58:46;;;;;;;15.32;11.52;;;19.90;37.00;;;;;;4957971;28;20345;-79
2023/03/03 09:01:15;;;;;;;14.05;10.60;;;20.00;36.80;;;;;;4957918;28;20248;-79
2023/03/03 09:03:42;;;;;;;14.10;11.35;;;20.10;36.80;;;;;;4975311;28;20198;-79
2023/03/03 09:06:09;;;;;;;13.52;11.25;;;20.20;36.70;;;;;;4958604;28;20222;-79
2023/03/03 09:08:37;;;;;;;11.77;10.30;;;20.20;36.30;;;;;;4941801;28;20569;-79
2023/03/03 09:11:03;;;;;;;12.45;10.55;;;20.40;36.40;;;;;;4960729;28;20222;-79
2023/03/03 09:13:32;;;;;;;11.48;9.55;;;20.40;36.30;;;;;;4962327;28;20212;-79
2023/03/03 09:15:59;;;;;;;12.60;10.77;;;20.40;36.00;;;;;;4946253;28;20198;-79
2023/03/03 09:18:31;;;;;;;10.38;9.07;;;20.40;35.90;;;;;;4962359;28;20202;-79
2023/03/03 09:20:58;;;;;;;10.73;9.65;;;20.40;36.20;;;;;;4962238;28;20190;-79
2023/03/03 09:23:32;;;;;;;11.45;10.27;;;20.30;36.20;;;;;;4961904;28;20292;-78
2023/03/03 09:26:15;;;;;;;13.23;10.65;;;20.30;36.00;;;;;;4963423;28;20202;-80
2023/03/03 09:28:43;;;;;;;11.48;9.65;;;20.20;35.70;;;;;;4962159;28;20198;-80
2023/03/03 09:31:21;;;;;;;11.25;10.02;;;20.20;35.90;;;;;;4961610;28;20225;-80
2023/03/03 09:33:50;;;;;;;12.50;10.57;;;20.10;35.80;;;;;;4979028;28;20541;-80
2023/03/03 09:36:21;;;;;;;11.98;9.98;;;20.10;35.50;;;;;;4961754;28;20572;-80
2023/03/03 09:38:48;;;;;;;10.65;9.30;;;20.00;35.80;;;;;;4962691;28;20218;-80
2023/03/03 09:41:44;;;;;;;12.13;10.57;;;20.10;35.90;;;;;;4962154;28;20218;-80
2023/03/03 09:44:27;;;;;;;11.13;9.23;;;20.10;35.90;;;;;;4961349;28;20208;-80
2023/03/03 09:47:09;;;;;;;12.13;9.35;;;20.10;35.80;;;;;;4961163;28;20637;-80
2023/03/03 09:49:41;;;;;;;12.38;9.70;;;20.20;35.70;;;;;;4961219;28;20189;-80
2023/03/03 09:52:22;;;;;;;11.73;9.77;;;20.10;35.70;;;;;;4960959;28;20272;-79
2023/03/03 09:54:54;;;;;;;10.48;9.48;;;20.10;35.60;;;;;;4961017;28;20194;-78
2023/03/03 09:57:24;;;;;;;11.95;10.55;;;20.10;35.50;;;;;;4961405;28;20257;-78
2023/03/03 10:00:06;;;;;;;11.52;9.75;;;20.10;35.60;;;;;;4944925;28;20296;-79
2023/03/03 10:02:43;;;;;;;11.73;10.05;;;20.20;35.30;;;;;;4978477;28;20179;-79
2023/03/03 10:05:15;;;;;;;9.93;8.93;;;20.10;35.50;;;;;;4961508;28;20205;-79
2023/03/03 10:07:46;;;;;;;10.98;9.88;;;20.20;35.40;;;;;;4960879;28;20269;-79
2023/03/03 10:10:25;;;;;;;11.75;10.13;;;20.20;35.10;;;;;;4945226;28;20198;-79
2023/03/03 10:13:02;;;;;;;10.68;9.57;;;20.20;35.30;;;;;;4960739;28;20210;-79
2023/03/03 10:15:36;;;;;;;13.27;10.68;;;20.20;35.20;;;;;;4960854;28;20186;-79
2023/03/03 10:18:12;;;;;;;12.20;9.65;;;20.20;35.20;;;;;;4960552;28;20221;-79
2023/03/03 10:20:47;;;;;;;10.68;9.57;;;20.20;35.20;;;;;;4960098;28;20194;-79
2023/03/03 10:23:21;;;;;;;11.82;9.98;;;20.30;35.30;;;;;;4961548;28;20204;-80
2023/03/03 10:26:03;;;;;;;10.63;9.55;;;20.20;35.20;;;;;;4960525;28;20233;-80
2023/03/03 10:28:57;;;;;;;11.07;9.95;;;20.30;35.00;;;;;;4960598;28;20194;-80
2023/03/03 10:31:33;;;;;;;10.43;9.30;;;20.30;35.00;;;;;;4960250;28;20210;-80
2023/03/03 10:34:05;;;;;;;10.75;9.65;;;20.30;35.10;;;;;;4960235;28;20198;-79
2023/03/03 10:36:44;;;;;;;11.00;9.90;;;20.30;35.00;;;;;;4961333;28;20321;-79
2023/03/03 10:39:19;;;;;;;10.63;9.65;;;20.20;34.40;;;;;;4960525;28;20629;-79
2023/03/03 10:41:59;;;;;;;10.95;9.23;;;20.20;35.00;;;;;;4960259;28;20259;-79
2023/03/03 10:44:36;;;;;;;10.73;9.55;;;20.30;34.90;;;;;;4977560;28;20229;-79
2023/03/03 10:47:25;;;;;;;10.93;9.70;;;20.20;34.90;;;;;;4959965;28;20233;-79
2023/03/03 10:49:56;;;;;;;11.00;9.68;;;20.20;34.90;;;;;;4977837;28;20217;-79
2023/03/03 10:52:32;;;;;;;11.10;9.90;;;20.30;35.00;;;;;;4960274;28;20226;-79
2023/03/03 10:55:18;;;;;;;12.27;10.27;;;20.30;35.00;;;;;;4960598;28;20201;-79
2023/03/03 10:57:51;;;;;;;11.45;9.60;;;20.30;35.00;;;;;;4960134;28;20312;-79
2023/03/03 11:00:21;;;;;;;11.60;10.43;;;20.30;34.80;;;;;;4960415;28;20700;-79
2023/03/03 11:03:03;;;;;;;10.45;9.07;;;20.30;34.80;;;;;;4961310;28;20213;-79
2023/03/03 11:05:34;;;;;;;11.18;9.23;;;20.30;34.80;;;;;;4960456;28;20190;-79
2023/03/03 11:08:03;;;;;;;11.10;10.00;;;20.40;35.00;;;;;;4960036;28;20272;-79
2023/03/03 11:10:47;;;;;;;11.10;9.93;;;20.40;34.90;;;;;;4977277;28;20198;-79
2023/03/03 11:13:16;;;;;;;11.85;10.50;;;20.40;34.70;;;;;;4960100;28;20194;-79
2023/03/03 11:16:02;;;;;;;12.50;10.35;;;20.40;34.70;;;;;;4959694;28;20660;-79
2023/03/03 11:18:35;;;;;;;10.38;9.13;;;20.40;34.90;;;;;;4960145;28;20209;-79
2023/03/03 11:21:07;;;;;;;12.23;9.95;;;20.40;34.70;;;;;;4960047;28;20225;-79
2023/03/03 11:23:58;;;;;;;9.68;8.70;;;20.30;34.60;;;;;;4959426;28;20197;-79
2023/03/03 11:26:39;;;;;;;10.68;9.35;;;20.30;35.00;;;;;;4959364;28;20647;-80
2023/03/03 11:29:12;;;;;;;10.95;9.82;;;20.40;35.00;;;;;;4959349;28;20197;-80
2023/03/03 11:31:43;;;;;;;11.10;9.90;;;20.30;34.80;;;;;;4943724;28;20767;-80
2023/03/03 11:34:16;;;;;;;10.95;9.57;;;20.30;34.40;;;;;;4958696;28;20637;-80
2023/03/03 11:36:47;;;;;;;11.73;10.48;;;20.30;34.90;;;;;;4960039;28;20277;-80
2023/03/03 11:39:15;;;;;;;12.52;10.77;;;20.30;35.00;;;;;;4959259;28;20202;-80
2023/03/03 11:41:43;;;;;;;11.40;10.15;;;20.30;34.60;;;;;;4959903;28;20292;-79
2023/03/03 11:44:18;;;;;;;12.13;10.10;;;20.30;34.60;;;;;;4959536;28;20615;-79
2023/03/03 11:46:47;;;;;;;10.30;9.20;;;20.30;34.50;;;;;;4960108;28;20249;-79
2023/03/03 11:49:21;;;;;;;12.15;10.95;;;20.30;34.80;;;;;;4959220;28;20221;-79
2023/03/03 11:51:52;;;;;;;10.13;9.10;;;20.20;34.60;;;;;;4960067;28;20213;-79
2023/03/03 11:54:22;;;;;;;10.95;9.48;;;20.20;34.90;;;;;;4959895;28;20643;-79
2023/03/03 11:56:49;;;;;;;12.13;10.77;;;20.20;34.90;;;;;;4960025;28;20587;-79
2023/03/03 11:59:37;;;;;;;9.85;8.85;;;20.20;34.20;;;;;;4959940;28;20202;-79
2023/03/03 12:02:14;;;;;;;10.75;9.68;;;20.20;35.10;;;;;;4959076;28;20261;-79
2023/03/03 12:04:44;;;;;;;11.15;9.90;;;20.20;34.30;;;;;;4977537;28;20178;-79
2023/03/03 12:07:20;;;;;;;11.27;9.20;;;20.20;34.50;;;;;;4959098;28;20228;-79
2023/03/03 12:09:52;;;;;;;9.63;8.68;;;20.20;34.40;;;;;;4959059;28;20200;-79
2023/03/03 12:12:22;;;;;;;9.57;8.57;;;20.20;34.60;;;;;;4958822;28;20214;-79
2023/03/03 12:15:07;;;;;;;10.25;9.05;;;20.20;34.70;;;;;;4959066;28;20198;-79
2023/03/03 12:17:47;;;;;;;10.15;9.07;;;20.20;34.60;;;;;;4958718;28;20296;-79
2023/03/03 12:20:18;;;;;;;11.35;10.05;;;20.20;34.90;;;;;;4944300;28;20273;-79
2023/03/03 12:22:51;;;;;;;11.75;9.98;;;20.10;34.70;;;;;;4959274;28;20585;-79
2023/03/03 12:25:24;;;;;;;11.23;10.13;;;20.10;34.70;;;;;;4959230;28;20572;-79
2023/03/03 12:27:55;;;;;;;10.55;9.45;;;20.10;34.90;;;;;;4959085;28;20222;-79
2023/03/03 12:30:31;;;;;;;10.00;9.00;;;20.10;34.90;;;;;;4958703;28;20385;-79
2023/03/03 12:33:10;;;;;;;10.23;9.23;;;20.00;35.00;;;;;;4958964;28;20218;-79
2023/03/03 12:35:43;;;;;;;11.63;9.23;;;20.00;34.90;;;;;;4959001;28;20201;-79
2023/03/03 12:38:14;;;;;;;10.65;9.55;;;20.00;35.10;;;;;;4959259;28;20213;-79
2023/03/03 12:40:44;;;;;;;10.40;9.40;;;20.00;35.40;;;;;;4958700;28;20218;-79
2023/03/03 12:43:21;;;;;;;10.88;9.73;;;20.00;35.20;;;;;;4958396;28;20200;-79